13:22
Airports
History
Links
Donate
Help keep this website running!
PayPal
Bitcoin
This page is community maintained. The information is intended for PC simulator navigation or reference.
Always use approved charts for navigation.
CZUC
IGNACE MUNI
IGNACE MUNI (CZUC)
Ignace, Ontario, Canada
(U)
Lat/Lng:49° 25' 46.5" N / 91° 43' 4.49" W
49.429584 / -91.717915
Elevation:1435'ft / 437mMSL
ID / ICAO:CZUC
Runways:1
Longest:05-23
Asphalt 1,094m / 3,591ft
Nearby Weather13:00 GMT 2018-01-20
Nearby weather at CYXL, SIOUX LOOKOUT located 48.0 nautical miles from CZUC
Altimeter: 29.67
Visibility: 15.0 statute miles
Wind: 0 knots (from 000°)
Temp: -7°c / 19°f
Humidity: 85.6%

METAR: CYXL 201300Z 00000KT 15SM -SN OVC008 M07/M09 A2967 RMK ST8 SLP075

(Powered by phpweather)
Airport Radio Frequencies
CTAF: 122.8
Nearby VORs <50NM
Nearby NDBs
Runway 05 / 23
Dimensions:1094.4 x 22.9m 3591' x 75'ft
Surface:Asphalt
Edge Lights:Low intensity
Runway 05 [A]Runway 23 [B]
Heading:049°TH 229°TH
Lat:
Lng:
49° 25' 35"N
91° 43' 25"W
49° 25' 58"N
91° 42' 43.99"W
User Notes and Comments
49° 25' 46.5" N / 91° 43' 4.49" W
Distance To
Airport ID:
Nearby Airports
(U) Atikokan Muni 45.4 NM
CYIB S 175°
(U) SIOUX LOOKOUT 48.0 NM
CYXL ( WX ) N 350°
(U) DRYDEN RGNL 53.6 NM
CYHD WNW 301°
4 International Falls 94.1 NM
09I SW 232°
(U) FORT FRANCES MUNI 94.6 NM
CYAG SW 235°
(U) Falls Intl 96.9 NM
KINL ( WX ) SW 231°
4 Littlefork Muni/hanover 110.0 NM
13Y SW 230°
VFR Chart
Flight Planning at SkyVector.com